Terminal Aerodrome Forecast
Issued by NWS

Home | Current Version | Previous Version | Graphics & Text | Print | Product List | Glossary On
Versions: 1 2 3 4 5 6 7 8 9 10 11 12 13 14 15 16 17 18
000
FTUS43 KGRB 251500 AAA
TAFAUW
TAF AMD
KAUW 251521Z 2515/2612 28007KT P6SM SCT017 BKN120
      TEMPO 2516/2517 -SN BKN017
     FM251700 28007KT P6SM -SN OVC017
     FM252000 27007KT P6SM FEW035 SCT100
     FM252300 23003KT P6SM SKC=

USA.gov is the U.S. government's official web portal to all federal, state and local government web resources and services.